Climatologie pour Saint-Brevin les Pins
Jour • Résumé pour janvier 20, 2017 Système :  Métrique    Anglais   Mixte
« - 1 jour
+ 1 jour »
Jour Semaine Mois Année Personnalisé
  Maximum : Minimum : Moyenne :
Température sous abri : 2.7 °C -6.4 °C -2.7 °C
Point de rosée : -1.5 °C -7.3 °C -4.5 °C
Humidité : 94 % 73 % 88 %
Vitesse du vent : 16.1 km/h 0.0 km/h 4.8 km/h
Rafale : 20.9 km/h - -
Direction :- - ENE
Pression : 1030.7 hPa 1026.3 hPa -
Précipitations : 0.0 mm    
Historical Graphs
 
 
Tableau de données pour janvier 20, 2017
Heure Tempé Pt rosée Pression Vent Vitesse Rafale Humidité Taux pluie (/hr) Soleil
00:00 -4.1 °C -5.5 °C 1030.7 hPa East 6.4 km/h 9.7 km/h 90 % 0.0 mm 0 W/m2
00:10 -4.2 °C -5.6 °C 1030.7 hPa ENE 3.2 km/h 11.3 km/h 90 % 0.0 mm 0 W/m2
00:15 -4.1 °C -5.5 °C 1030.7 hPa ENE 3.2 km/h 11.3 km/h 90 % 0.0 mm 0 W/m2
00:20 -4.1 °C -5.4 °C 1030.7 hPa East 3.2 km/h 8.0 km/h 91 % 0.0 mm 0 W/m2
00:25 -4.1 °C -5.5 °C 1030.4 hPa East 9.7 km/h 11.3 km/h 90 % 0.0 mm 0 W/m2
00:30 -4.1 °C -5.3 °C 1030.4 hPa ENE 1.6 km/h 11.3 km/h 91 % 0.0 mm 0 W/m2
00:35 -4.0 °C -5.3 °C 1030.4 hPa ENE 4.8 km/h 11.3 km/h 91 % 0.0 mm 0 W/m2
00:40 -4.0 °C -5.3 °C 1030.4 hPa ENE 1.6 km/h 11.3 km/h 91 % 0.0 mm 0 W/m2
00:45 -3.9 °C -5.2 °C 1030.4 hPa ENE 3.2 km/h 11.3 km/h 91 % 0.0 mm 0 W/m2
00:50 -4.0 °C -5.4 °C 1030.4 hPa East 1.6 km/h 9.7 km/h 90 % 0.0 mm 0 W/m2
00:55 -4.1 °C -5.3 °C 1030.4 hPa ENE 1.6 km/h 9.7 km/h 91 % 0.0 mm 0 W/m2
01:00 -4.3 °C -5.5 °C 1030.4 hPa ENE 3.2 km/h 9.7 km/h 91 % 0.0 mm 0 W/m2
01:05 -4.3 °C -5.5 °C 1030.0 hPa NE 6.4 km/h 11.3 km/h 91 % 0.0 mm 0 W/m2
01:10 -4.3 °C -5.5 °C 1030.0 hPa ENE 6.4 km/h 11.3 km/h 91 % 0.0 mm 0 W/m2
01:15 -4.3 °C -5.6 °C 1030.0 hPa ENE 4.8 km/h 11.3 km/h 91 % 0.0 mm 0 W/m2
01:20 -4.3 °C -5.6 °C 1030.0 hPa ENE 3.2 km/h 11.3 km/h 91 % 0.0 mm 0 W/m2
01:25 -4.4 °C -5.5 °C 1030.0 hPa ENE 3.2 km/h 8.0 km/h 92 % 0.0 mm 0 W/m2
01:30 -4.5 °C -5.7 °C 1030.0 hPa East 1.6 km/h 9.7 km/h 91 % 0.0 mm 0 W/m2
01:35 -4.6 °C -5.8 °C 1030.0 hPa ENE 8.0 km/h 9.7 km/h 91 % 0.0 mm 0 W/m2
01:40 -4.6 °C -5.7 °C 1029.7 hPa ENE 3.2 km/h 8.0 km/h 92 % 0.0 mm 0 W/m2
01:45 -4.4 °C -5.5 °C 1029.7 hPa ENE 4.8 km/h 8.0 km/h 92 % 0.0 mm 0 W/m2
01:50 -4.4 °C -5.7 °C 1029.7 hPa ENE 3.2 km/h 8.0 km/h 91 % 0.0 mm 0 W/m2
01:55 -4.6 °C -5.7 °C 1029.7 hPa ENE 1.6 km/h 9.7 km/h 92 % 0.0 mm 0 W/m2
02:00 -4.7 °C -5.9 °C 1029.7 hPa ENE 1.6 km/h 9.7 km/h 91 % 0.0 mm 0 W/m2
02:05 -4.6 °C -5.7 °C 1029.7 hPa ENE 1.6 km/h 8.0 km/h 92 % 0.0 mm 0 W/m2
02:10 -4.6 °C -5.7 °C 1029.7 hPa East 3.2 km/h 8.0 km/h 92 % 0.0 mm 0 W/m2
02:15 -4.6 °C -5.7 °C 1029.7 hPa East 3.2 km/h 8.0 km/h 92 % 0.0 mm 0 W/m2
02:20 -4.8 °C -6.1 °C 1029.7 hPa ENE 6.4 km/h 6.4 km/h 91 % 0.0 mm 0 W/m2
02:25 -5.0 °C -6.1 °C 1029.7 hPa East 1.6 km/h 9.7 km/h 92 % 0.0 mm 0 W/m2
02:30 -5.2 °C -6.3 °C 1029.7 hPa ENE 3.2 km/h 9.7 km/h 92 % 0.0 mm 0 W/m2
02:35 -5.0 °C -6.1 °C 1029.7 hPa East 3.2 km/h 8.0 km/h 92 % 0.0 mm 0 W/m2
02:40 -4.9 °C -6.0 °C 1029.7 hPa ENE 3.2 km/h 8.0 km/h 92 % 0.0 mm 0 W/m2
02:45 -5.0 °C -6.1 °C 1029.7 hPa ENE 1.6 km/h 6.4 km/h 92 % 0.0 mm 0 W/m2
02:50 -4.9 °C -6.0 °C 1029.7 hPa ENE 4.8 km/h 6.4 km/h 92 % 0.0 mm 0 W/m2
02:55 -4.9 °C -6.0 °C 1029.7 hPa ENE 4.8 km/h 9.7 km/h 92 % 0.0 mm 0 W/m2
03:00 -4.9 °C -6.0 °C 1029.7 hPa ENE 3.2 km/h 9.7 km/h 92 % 0.0 mm 0 W/m2
03:05 -4.9 °C -6.0 °C 1029.7 hPa East 4.8 km/h 8.0 km/h 92 % 0.0 mm 0 W/m2
03:10 -4.8 °C -5.9 °C 1029.7 hPa ENE 4.8 km/h 8.0 km/h 92 % 0.0 mm 0 W/m2
03:15 -4.9 °C -6.0 °C 1029.7 hPa ENE 3.2 km/h 6.4 km/h 92 % 0.0 mm 0 W/m2
03:20 -4.8 °C -5.9 °C 1029.7 hPa East 3.2 km/h 6.4 km/h 92 % 0.0 mm 0 W/m2
03:25 -4.8 °C -5.9 °C 1029.7 hPa ENE 3.2 km/h 6.4 km/h 92 % 0.0 mm 0 W/m2
03:30 -4.9 °C -6.0 °C 1029.7 hPa Calm   6.4 km/h 92 % 0.0 mm 0 W/m2
03:35 -5.2 °C -6.3 °C 1029.7 hPa Calm   6.4 km/h 92 % 0.0 mm 0 W/m2
03:40 -5.1 °C -6.2 °C 1029.7 hPa ENE 3.2 km/h 6.4 km/h 92 % 0.0 mm 0 W/m2
03:45 -5.1 °C -6.2 °C 1029.7 hPa ENE 3.2 km/h 6.4 km/h 92 % 0.0 mm 0 W/m2
03:50 -5.1 °C -6.2 °C 1029.7 hPa ENE 4.8 km/h 6.4 km/h 92 % 0.0 mm 0 W/m2
03:55 -5.3 °C -6.4 °C 1029.7 hPa ENE 4.8 km/h 6.4 km/h 92 % 0.0 mm 0 W/m2
04:00 -5.4 °C -6.5 °C 1029.7 hPa ENE 1.6 km/h 8.0 km/h 92 % 0.0 mm 0 W/m2
04:05 -5.4 °C -6.4 °C 1029.3 hPa ENE 4.8 km/h 11.3 km/h 93 % 0.0 mm 0 W/m2
04:10 -5.3 °C -6.3 °C 1029.3 hPa ENE 1.6 km/h 11.3 km/h 93 % 0.0 mm 0 W/m2
04:15 -5.2 °C -6.1 °C 1029.3 hPa ENE 4.8 km/h 8.0 km/h 93 % 0.0 mm 0 W/m2
04:20 -5.1 °C -6.1 °C 1029.3 hPa ENE 3.2 km/h 6.4 km/h 93 % 0.0 mm 0 W/m2
04:25 -5.2 °C -6.1 °C 1029.3 hPa ENE 3.2 km/h 4.8 km/h 93 % 0.0 mm 0 W/m2
04:30 -5.1 °C -6.1 °C 1029.3 hPa ENE 1.6 km/h 4.8 km/h 93 % 0.0 mm 0 W/m2
04:35 -5.2 °C -6.2 °C 1029.3 hPa Calm   6.4 km/h 93 % 0.0 mm 0 W/m2
04:40 -5.2 °C -6.2 °C 1029.3 hPa East 3.2 km/h 6.4 km/h 93 % 0.0 mm 0 W/m2
04:45 -5.3 °C -6.4 °C 1029.3 hPa East 1.6 km/h 6.4 km/h 92 % 0.0 mm 0 W/m2
04:50 -5.7 °C -6.8 °C 1029.3 hPa East 3.2 km/h 4.8 km/h 92 % 0.0 mm 0 W/m2
04:55 -5.8 °C -6.9 °C 1029.3 hPa Calm   4.8 km/h 92 % 0.0 mm 0 W/m2
05:00 -6.1 °C -7.2 °C 1029.3 hPa Calm   4.8 km/h 92 % 0.0 mm 0 W/m2
05:05 -6.2 °C -7.2 °C 1029.3 hPa Calm   3.2 km/h 93 % 0.0 mm 0 W/m2
05:10 -6.4 °C -7.3 °C 1029.3 hPa NNE 3.2 km/h 6.4 km/h 93 % 0.0 mm 0 W/m2
05:15 -6.4 °C -7.3 °C 1029.3 hPa NNE 3.2 km/h 6.4 km/h 93 % 0.0 mm 0 W/m2
05:20 -6.3 °C -7.1 °C 1029.3 hPa NE 4.8 km/h 6.4 km/h 94 % 0.0 mm 0 W/m2
05:25 -6.1 °C -6.9 °C 1029.3 hPa NE 6.4 km/h 8.0 km/h 94 % 0.0 mm 0 W/m2
05:30 -5.8 °C -6.6 °C 1029.3 hPa Calm   9.7 km/h 94 % 0.0 mm 0 W/m2
05:35 -5.7 °C -6.5 °C 1029.0 hPa ENE 1.6 km/h 9.7 km/h 94 % 0.0 mm 0 W/m2
05:40 -5.9 °C -6.8 °C 1029.0 hPa ENE 4.8 km/h 8.0 km/h 93 % 0.0 mm 0 W/m2
05:45 -5.8 °C -6.6 °C 1029.0 hPa ENE 1.6 km/h 11.3 km/h 94 % 0.0 mm 0 W/m2
05:50 -5.9 °C -6.9 °C 1029.0 hPa NE 4.8 km/h 11.3 km/h 93 % 0.0 mm 0 W/m2
05:55 -5.8 °C -6.6 °C 1029.0 hPa East 3.2 km/h 11.3 km/h 94 % 0.0 mm 0 W/m2
06:00 -5.4 °C -6.3 °C 1029.0 hPa ENE 1.6 km/h 12.9 km/h 94 % 0.0 mm 0 W/m2
06:05 -5.5 °C -6.3 °C 1029.0 hPa NE 4.8 km/h 12.9 km/h 94 % 0.0 mm 0 W/m2
06:10 -5.7 °C -6.7 °C 1029.0 hPa NE 1.6 km/h 8.0 km/h 93 % 0.0 mm 0 W/m2
06:15 -5.8 °C -6.6 °C 1029.0 hPa NE 1.6 km/h 8.0 km/h 94 % 0.0 mm 0 W/m2
06:20 -5.7 °C -6.5 °C 1029.0 hPa NNE 4.8 km/h 8.0 km/h 94 % 0.0 mm 0 W/m2
06:25 -5.8 °C -6.6 °C 1029.0 hPa ENE 1.6 km/h 8.0 km/h 94 % 0.0 mm 0 W/m2
06:30 -5.7 °C -6.5 °C 1029.0 hPa NE 4.8 km/h 8.0 km/h 94 % 0.0 mm 0 W/m2
06:35 -5.6 °C -6.4 °C 1029.0 hPa ENE 3.2 km/h 8.0 km/h 94 % 0.0 mm 0 W/m2
06:40 -5.5 °C -6.3 °C 1029.0 hPa ENE 4.8 km/h 12.9 km/h 94 % 0.0 mm 0 W/m2
06:45 -5.4 °C -6.2 °C 1029.0 hPa ENE 8.0 km/h 12.9 km/h 94 % 0.0 mm 0 W/m2
06:50 -5.2 °C -6.0 °C 1029.0 hPa ENE 3.2 km/h 12.9 km/h 94 % 0.0 mm 0 W/m2
06:55 -5.2 °C -6.0 °C 1029.0 hPa ENE 3.2 km/h 12.9 km/h 94 % 0.0 mm 0 W/m2
07:00 -5.3 °C -6.2 °C 1029.0 hPa NE 6.4 km/h 12.9 km/h 93 % 0.0 mm 0 W/m2
07:05 -5.3 °C -6.3 °C 1029.0 hPa ENE 1.6 km/h 11.3 km/h 93 % 0.0 mm 0 W/m2
07:10 -5.4 °C -6.3 °C 1029.0 hPa NE 4.8 km/h 11.3 km/h 93 % 0.0 mm 0 W/m2
07:15 -5.5 °C -6.5 °C 1029.0 hPa NE 3.2 km/h 8.0 km/h 93 % 0.0 mm 0 W/m2
07:20 -5.6 °C -6.5 °C 1029.0 hPa ENE 1.6 km/h 8.0 km/h 93 % 0.0 mm 0 W/m2
07:25 -5.7 °C -6.6 °C 1029.0 hPa ENE 3.2 km/h 8.0 km/h 93 % 0.0 mm 0 W/m2
07:30 -5.6 °C -6.6 °C 1029.0 hPa ENE 3.2 km/h 6.4 km/h 93 % 0.0 mm 0 W/m2
07:35 -5.7 °C -6.7 °C 1029.0 hPa ENE 1.6 km/h 6.4 km/h 93 % 0.0 mm 0 W/m2
07:40 -5.7 °C -6.5 °C 1029.0 hPa ENE 8.0 km/h 8.0 km/h 94 % 0.0 mm 0 W/m2
07:45 -5.7 °C -6.7 °C 1029.0 hPa ENE 4.8 km/h 8.0 km/h 93 % 0.0 mm 0 W/m2
07:50 -5.7 °C -6.5 °C 1029.0 hPa Calm   8.0 km/h 94 % 0.0 mm 0 W/m2
07:55 -5.6 °C -6.4 °C 1029.0 hPa ENE 3.2 km/h 8.0 km/h 94 % 0.0 mm 0 W/m2
08:00 -5.5 °C -6.3 °C 1029.0 hPa ENE 4.8 km/h 11.3 km/h 94 % 0.0 mm 0 W/m2
08:05 -5.4 °C -6.2 °C 1029.0 hPa ENE 4.8 km/h 12.9 km/h 94 % 0.0 mm 0 W/m2
08:10 -5.3 °C -6.1 °C 1029.0 hPa ENE 3.2 km/h 12.9 km/h 94 % 0.0 mm 0 W/m2
08:15 -5.4 °C -6.2 °C 1029.0 hPa Calm   9.7 km/h 94 % 0.0 mm 0 W/m2
08:20 -5.4 °C -6.2 °C 1029.0 hPa East 1.6 km/h 9.7 km/h 94 % 0.0 mm 0 W/m2
08:25 -5.6 °C -6.6 °C 1029.0 hPa ENE 4.8 km/h 9.7 km/h 93 % 0.0 mm 0 W/m2
08:30 -5.6 °C -6.4 °C 1029.0 hPa ENE 3.2 km/h 9.7 km/h 94 % 0.0 mm 0 W/m2
08:35 -5.6 °C -6.4 °C 1029.0 hPa ENE 1.6 km/h 9.7 km/h 94 % 0.0 mm 0 W/m2
08:40 -5.4 °C -6.3 °C 1029.0 hPa ENE 4.8 km/h 11.3 km/h 94 % 0.0 mm 0 W/m2
08:45 -5.4 °C -6.2 °C 1028.7 hPa East 4.8 km/h 11.3 km/h 94 % 0.0 mm 0 W/m2
08:50 -5.3 °C -6.1 °C 1028.7 hPa East 3.2 km/h 11.3 km/h 94 % 0.0 mm 0 W/m2
08:55 -5.4 °C -6.2 °C 1028.7 hPa ENE 4.8 km/h 11.3 km/h 94 % 0.0 mm 5 W/m2
09:00 -5.4 °C -6.3 °C 1028.7 hPa ENE 3.2 km/h 11.3 km/h 94 % 0.0 mm 9 W/m2
09:05 -5.4 °C -6.3 °C 1029.0 hPa East 3.2 km/h 11.3 km/h 94 % 0.0 mm 11 W/m2
09:10 -5.4 °C -6.2 °C 1029.0 hPa East 8.0 km/h 11.3 km/h 94 % 0.0 mm 14 W/m2
09:15 -5.3 °C -6.1 °C 1029.0 hPa East 3.2 km/h 11.3 km/h 94 % 0.0 mm 16 W/m2
09:20 -5.3 °C -6.1 °C 1029.0 hPa ENE 4.8 km/h 11.3 km/h 94 % 0.0 mm 19 W/m2
09:25 -5.2 °C -6.0 °C 1029.0 hPa ENE 6.4 km/h 11.3 km/h 94 % 0.0 mm 23 W/m2
09:30 -5.1 °C -5.9 °C 1029.0 hPa ENE 4.8 km/h 12.9 km/h 94 % 0.0 mm 25 W/m2
09:35 -5.1 °C -5.9 °C 1029.0 hPa ENE 3.2 km/h 12.9 km/h 94 % 0.0 mm 26 W/m2
09:40 -4.9 °C -5.9 °C 1029.0 hPa ENE 1.6 km/h 12.9 km/h 93 % 0.0 mm 30 W/m2
09:45 -4.8 °C -5.8 °C 1029.0 hPa ENE 1.6 km/h 12.9 km/h 93 % 0.0 mm 32 W/m2
09:50 -4.8 °C -5.7 °C 1029.0 hPa East 8.0 km/h 11.3 km/h 93 % 0.0 mm 33 W/m2
09:55 -4.7 °C -5.6 °C 1029.0 hPa Calm   11.3 km/h 93 % 0.0 mm 37 W/m2
10:00 -4.6 °C -5.5 °C 1029.3 hPa ENE 3.2 km/h 12.9 km/h 93 % 0.0 mm 39 W/m2
10:05 -4.4 °C -5.4 °C 1029.0 hPa NE 6.4 km/h 14.5 km/h 93 % 0.0 mm 40 W/m2
10:10 -4.2 °C -5.2 °C 1029.0 hPa NE 3.2 km/h 14.5 km/h 93 % 0.0 mm 42 W/m2
10:15 -4.1 °C -5.1 °C 1029.0 hPa ENE 12.9 km/h 14.5 km/h 93 % 0.0 mm 44 W/m2
10:20 -3.9 °C -4.9 °C 1029.0 hPa ENE 4.8 km/h 14.5 km/h 93 % 0.0 mm 44 W/m2
10:25 -3.8 °C -4.8 °C 1029.0 hPa ENE 12.9 km/h 14.5 km/h 93 % 0.0 mm 51 W/m2
10:30 -3.7 °C -4.8 °C 1029.0 hPa East 8.0 km/h 17.7 km/h 92 % 0.0 mm 114 W/m2
10:35 -3.6 °C -4.7 °C 1029.0 hPa ENE 8.0 km/h 17.7 km/h 92 % 0.0 mm 123 W/m2
10:40 -3.4 °C -4.6 °C 1029.0 hPa East 14.5 km/h 14.5 km/h 91 % 0.0 mm 139 W/m2
10:45 -3.2 °C -4.4 °C 1029.0 hPa ENE 8.0 km/h 14.5 km/h 91 % 0.0 mm 158 W/m2
10:55 -2.9 °C -4.3 °C 1029.0 hPa ENE 6.4 km/h 17.7 km/h 90 % 0.0 mm 186 W/m2
11:00 -2.7 °C -4.1 °C 1028.7 hPa East 8.0 km/h 17.7 km/h 90 % 0.0 mm 200 W/m2
11:05 -2.6 °C -4.0 °C 1029.0 hPa East 6.4 km/h 19.3 km/h 90 % 0.0 mm 204 W/m2
11:10 -2.4 °C -4.0 °C 1029.0 hPa East 8.0 km/h 19.3 km/h 89 % 0.0 mm 225 W/m2
11:15 -2.4 °C -4.0 °C 1029.0 hPa East 9.7 km/h 16.1 km/h 89 % 0.0 mm 239 W/m2
11:20 -2.3 °C -4.0 °C 1029.0 hPa ENE 6.4 km/h 16.1 km/h 88 % 0.0 mm 250 W/m2
11:25 -2.2 °C -3.9 °C 1029.0 hPa East 12.9 km/h 16.1 km/h 88 % 0.0 mm 264 W/m2
11:30 -2.0 °C -3.7 °C 1029.0 hPa East 16.1 km/h 16.1 km/h 88 % 0.0 mm 274 W/m2
11:35 -1.8 °C -3.7 °C 1029.0 hPa East 12.9 km/h 16.1 km/h 87 % 0.0 mm 281 W/m2
11:40 -1.7 °C -3.5 °C 1029.0 hPa East 8.0 km/h 17.7 km/h 87 % 0.0 mm 294 W/m2
11:45 -1.6 °C -3.6 °C 1028.7 hPa ENE 11.3 km/h 17.7 km/h 86 % 0.0 mm 308 W/m2
11:50 -1.5 °C -3.5 °C 1028.7 hPa SE 8.0 km/h 16.1 km/h 86 % 0.0 mm 315 W/m2
11:55 -1.2 °C -3.4 °C 1028.7 hPa ENE 6.4 km/h 14.5 km/h 85 % 0.0 mm 309 W/m2
12:00 -1.3 °C -3.6 °C 1028.7 hPa ESE 11.3 km/h 16.1 km/h 84 % 0.0 mm 304 W/m2
12:05 -1.2 °C -3.5 °C 1028.7 hPa East 8.0 km/h 16.1 km/h 84 % 0.0 mm 308 W/m2
12:10 -1.0 °C -3.2 °C 1028.7 hPa ENE 8.0 km/h 14.5 km/h 85 % 0.0 mm 315 W/m2
12:15 -0.9 °C -3.3 °C 1028.3 hPa East 8.0 km/h 16.1 km/h 84 % 0.0 mm 316 W/m2
12:20 -0.6 °C -2.9 °C 1028.3 hPa East 14.5 km/h 16.1 km/h 84 % 0.0 mm 315 W/m2
12:25 -0.5 °C -3.0 °C 1028.3 hPa ENE 6.4 km/h 14.5 km/h 83 % 0.0 mm 322 W/m2
12:30 -0.3 °C -3.0 °C 1028.3 hPa SE 11.3 km/h 14.5 km/h 82 % 0.0 mm 325 W/m2
12:35 -0.2 °C -2.9 °C 1028.0 hPa East 16.1 km/h 16.1 km/h 82 % 0.0 mm 334 W/m2
12:40 -0.2 °C -3.0 °C 1028.0 hPa East 12.9 km/h 16.1 km/h 81 % 0.0 mm 338 W/m2
12:45 0.1 °C -2.8 °C 1028.0 hPa East 6.4 km/h 16.1 km/h 81 % 0.0 mm 343 W/m2
12:50 0.5 °C -2.6 °C 1028.0 hPa ENE 14.5 km/h 14.5 km/h 80 % 0.0 mm 339 W/m2
12:55 0.5 °C -2.6 °C 1028.0 hPa ENE 8.0 km/h 16.1 km/h 80 % 0.0 mm 341 W/m2
13:00 0.5 °C -2.6 °C 1028.0 hPa ENE 11.3 km/h 17.7 km/h 80 % 0.0 mm 346 W/m2
13:05 0.6 °C -2.7 °C 1028.0 hPa East 11.3 km/h 17.7 km/h 79 % 0.0 mm 346 W/m2
13:10 0.5 °C -2.7 °C 1028.0 hPa ENE 12.9 km/h 17.7 km/h 79 % 0.0 mm 346 W/m2
13:15 0.7 °C -2.4 °C 1027.7 hPa East 9.7 km/h 20.9 km/h 80 % 0.0 mm 346 W/m2
13:20 0.7 °C -2.7 °C 1027.7 hPa ENE 8.0 km/h 20.9 km/h 78 % 0.0 mm 343 W/m2
13:25 0.8 °C -2.6 °C 1027.7 hPa NE 11.3 km/h 16.1 km/h 78 % 0.0 mm 346 W/m2
13:30 0.9 °C -2.6 °C 1027.7 hPa ENE 8.0 km/h 16.1 km/h 77 % 0.0 mm 345 W/m2
13:35 1.1 °C -2.5 °C 1027.7 hPa East 9.7 km/h 16.1 km/h 77 % 0.0 mm 346 W/m2
13:40 1.2 °C -2.4 °C 1027.3 hPa East 14.5 km/h 16.1 km/h 77 % 0.0 mm 343 W/m2
13:45 1.4 °C -2.2 °C 1027.3 hPa ESE 6.4 km/h 16.1 km/h 77 % 0.0 mm 341 W/m2
13:50 1.7 °C -1.9 °C 1027.3 hPa NE 3.2 km/h 17.7 km/h 77 % 0.0 mm 338 W/m2
13:55 1.7 °C -2.1 °C 1027.3 hPa ENE 11.3 km/h 17.7 km/h 76 % 0.0 mm 339 W/m2
14:00 1.7 °C -2.2 °C 1027.3 hPa ESE 6.4 km/h 14.5 km/h 75 % 0.0 mm 336 W/m2
14:05 1.8 °C -2.0 °C 1027.0 hPa ESE 8.0 km/h 14.5 km/h 76 % 0.0 mm 332 W/m2
14:10 2.2 °C -1.8 °C 1027.0 hPa ENE 6.4 km/h 14.5 km/h 75 % 0.0 mm 329 W/m2
14:15 2.0 °C -2.0 °C 1027.0 hPa East 12.9 km/h 16.1 km/h 75 % 0.0 mm 327 W/m2
14:20 2.3 °C -1.8 °C 1027.0 hPa East 16.1 km/h 16.1 km/h 75 % 0.0 mm 316 W/m2
14:25 2.0 °C -2.2 °C 1027.0 hPa East 11.3 km/h 19.3 km/h 74 % 0.0 mm 318 W/m2
14:30 2.1 °C -1.9 °C 1027.0 hPa ESE 3.2 km/h 19.3 km/h 75 % 0.0 mm 308 W/m2
14:40 2.3 °C -1.8 °C 1027.0 hPa ENE 4.8 km/h 14.5 km/h 74 % 0.0 mm 297 W/m2
14:45 2.6 °C -1.7 °C 1027.0 hPa ENE 8.0 km/h 17.7 km/h 73 % 0.0 mm 292 W/m2
14:50 2.7 °C -1.5 °C 1027.0 hPa ENE 4.8 km/h 17.7 km/h 74 % 0.0 mm 287 W/m2
14:55 2.5 °C -1.9 °C 1027.0 hPa ENE 8.0 km/h 16.1 km/h 73 % 0.0 mm 279 W/m2
15:00 2.4 °C -1.7 °C 1027.0 hPa NNE 1.6 km/h 16.1 km/h 74 % 0.0 mm 272 W/m2
15:05 2.6 °C -1.8 °C 1026.6 hPa ENE 12.9 km/h 17.7 km/h 73 % 0.0 mm 269 W/m2
15:10 2.6 °C -1.6 °C 1026.6 hPa ENE 16.1 km/h 19.3 km/h 74 % 0.0 mm 258 W/m2
15:15 2.6 °C -1.8 °C 1026.6 hPa East 11.3 km/h 19.3 km/h 73 % 0.0 mm 246 W/m2
15:20 2.4 °C -1.8 °C 1026.6 hPa ENE 6.4 km/h 16.1 km/h 74 % 0.0 mm 239 W/m2
15:25 2.5 °C -1.9 °C 1026.6 hPa ESE 8.0 km/h 16.1 km/h 73 % 0.0 mm 234 W/m2
15:30 2.4 °C -1.7 °C 1026.6 hPa ESE 8.0 km/h 16.1 km/h 74 % 0.0 mm 225 W/m2
15:35 2.6 °C -1.7 °C 1026.6 hPa East 8.0 km/h 16.1 km/h 73 % 0.0 mm 220 W/m2
15:40 2.6 °C -1.8 °C 1026.6 hPa ENE 6.4 km/h 14.5 km/h 73 % 0.0 mm 209 W/m2
15:45 2.6 °C -1.7 °C 1026.6 hPa ENE 4.8 km/h 14.5 km/h 73 % 0.0 mm 200 W/m2
15:50 2.6 °C -1.8 °C 1026.6 hPa ENE 8.0 km/h 14.5 km/h 73 % 0.0 mm 188 W/m2
15:55 2.5 °C -1.7 °C 1026.6 hPa East 8.0 km/h 14.5 km/h 74 % 0.0 mm 181 W/m2
16:00 2.4 °C -1.8 °C 1026.6 hPa NE 4.8 km/h 12.9 km/h 74 % 0.0 mm 167 W/m2
16:05 2.3 °C -1.8 °C 1026.6 hPa ENE 6.4 km/h 16.1 km/h 74 % 0.0 mm 160 W/m2
16:10 2.5 °C -1.7 °C 1026.6 hPa NE 1.6 km/h 16.1 km/h 74 % 0.0 mm 149 W/m2
16:15 2.4 °C -1.7 °C 1026.3 hPa ENE 4.8 km/h 16.1 km/h 74 % 0.0 mm 139 W/m2
16:45 1.7 °C -2.1 °C 1026.6 hPa East 6.4 km/h 17.7 km/h 76 % 0.0 mm 42 W/m2
16:50 1.5 °C -2.1 °C 1026.6 hPa ESE 8.0 km/h 17.7 km/h 77 % 0.0 mm 39 W/m2
16:55 1.4 °C -2.0 °C 1026.6 hPa East 11.3 km/h 16.1 km/h 78 % 0.0 mm 37 W/m2
17:00 1.3 °C -2.1 °C 1026.6 hPa ENE 4.8 km/h 14.5 km/h 78 % 0.0 mm 33 W/m2
17:05 1.2 °C -2.2 °C 1026.6 hPa East 4.8 km/h 14.5 km/h 78 % 0.0 mm 32 W/m2
17:10 1.2 °C -2.2 °C 1026.6 hPa East 3.2 km/h 16.1 km/h 78 % 0.0 mm 28 W/m2
17:15 1.0 °C -2.2 °C 1027.0 hPa ENE 1.6 km/h 16.1 km/h 79 % 0.0 mm 25 W/m2
17:20 0.9 °C -2.3 °C 1027.0 hPa East 4.8 km/h 11.3 km/h 79 % 0.0 mm 23 W/m2
17:25 0.8 °C -2.3 °C 1027.0 hPa East 4.8 km/h 14.5 km/h 80 % 0.0 mm 19 W/m2
17:30 0.6 °C -2.4 °C 1027.0 hPa ENE 6.4 km/h 14.5 km/h 80 % 0.0 mm 16 W/m2
17:35 0.4 °C -2.4 °C 1027.0 hPa East 1.6 km/h 9.7 km/h 81 % 0.0 mm 12 W/m2
17:45 0.2 °C -2.7 °C 1027.0 hPa ENE 4.8 km/h 12.9 km/h 81 % 0.0 mm 7 W/m2
17:50 -0.1 °C -2.8 °C 1027.0 hPa ENE 4.8 km/h 8.0 km/h 82 % 0.0 mm 5 W/m2
17:55 -0.1 °C -2.7 °C 1027.0 hPa East 3.2 km/h 8.0 km/h 83 % 0.0 mm 0 W/m2
18:00 -0.2 °C -2.8 °C 1027.0 hPa East 1.6 km/h 6.4 km/h 83 % 0.0 mm 0 W/m2
18:05 -0.4 °C -2.9 °C 1027.0 hPa East 4.8 km/h 8.0 km/h 83 % 0.0 mm 0 W/m2
18:10 -0.6 °C -3.1 °C 1027.0 hPa East 1.6 km/h 8.0 km/h 83 % 0.0 mm 0 W/m2
18:15 -0.7 °C -3.1 °C 1027.0 hPa East 3.2 km/h 8.0 km/h 84 % 0.0 mm 0 W/m2
18:20 -0.9 °C -3.1 °C 1027.0 hPa East 3.2 km/h 8.0 km/h 85 % 0.0 mm 0 W/m2
18:25 -1.2 °C -3.4 °C 1027.0 hPa Calm   4.8 km/h 85 % 0.0 mm 0 W/m2
18:30 -1.6 °C -3.6 °C 1027.0 hPa Calm   4.8 km/h 86 % 0.0 mm 0 W/m2
18:35 -1.7 °C -3.5 °C 1027.0 hPa East 3.2 km/h 4.8 km/h 87 % 0.0 mm 0 W/m2
18:40 -1.7 °C -3.5 °C 1027.0 hPa East 1.6 km/h 4.8 km/h 87 % 0.0 mm 0 W/m2
18:45 -1.8 °C -3.5 °C 1027.0 hPa East 1.6 km/h 4.8 km/h 88 % 0.0 mm 0 W/m2
18:50 -2.1 °C -3.8 °C 1027.0 hPa East 1.6 km/h 3.2 km/h 88 % 0.0 mm 0 W/m2
18:55 -2.1 °C -3.7 °C 1027.0 hPa East 1.6 km/h 6.4 km/h 89 % 0.0 mm 0 W/m2
19:00 -1.9 °C -3.5 °C 1027.0 hPa East 4.8 km/h 6.4 km/h 89 % 0.0 mm 0 W/m2
19:05 -1.8 °C -3.4 °C 1027.0 hPa East 1.6 km/h 4.8 km/h 89 % 0.0 mm 0 W/m2
19:10 -1.9 °C -3.5 °C 1027.0 hPa Calm   4.8 km/h 89 % 0.0 mm 0 W/m2
19:15 -1.7 °C -3.3 °C 1027.0 hPa East 3.2 km/h 4.8 km/h 89 % 0.0 mm 0 W/m2
19:20 -1.7 °C -3.3 °C 1027.0 hPa East 3.2 km/h 8.0 km/h 89 % 0.0 mm 0 W/m2
19:25 -1.7 °C -3.2 °C 1027.0 hPa East 3.2 km/h 8.0 km/h 89 % 0.0 mm 0 W/m2
19:30 -1.6 °C -3.2 °C 1027.0 hPa East 8.0 km/h 8.0 km/h 89 % 0.0 mm 0 W/m2
19:35 -1.7 °C -3.4 °C 1027.0 hPa ENE 4.8 km/h 9.7 km/h 88 % 0.0 mm 0 W/m2
19:40 -1.6 °C -3.2 °C 1027.0 hPa East 4.8 km/h 9.7 km/h 89 % 0.0 mm 0 W/m2
19:45 -1.6 °C -3.3 °C 1027.0 hPa East 3.2 km/h 8.0 km/h 88 % 0.0 mm 0 W/m2
19:50 -1.6 °C -3.3 °C 1027.0 hPa East 3.2 km/h 8.0 km/h 88 % 0.0 mm 0 W/m2
19:55 -1.7 °C -3.4 °C 1027.0 hPa East 4.8 km/h 8.0 km/h 88 % 0.0 mm 0 W/m2
20:00 -1.7 °C -3.3 °C 1027.0 hPa East 3.2 km/h 8.0 km/h 89 % 0.0 mm 0 W/m2
20:05 -1.7 °C -3.4 °C 1027.0 hPa ENE 4.8 km/h 8.0 km/h 88 % 0.0 mm 0 W/m2
20:10 -1.8 °C -3.5 °C 1027.0 hPa Calm   8.0 km/h 88 % 0.0 mm 0 W/m2
20:15 -1.8 °C -3.4 °C 1027.0 hPa ENE 4.8 km/h 8.0 km/h 89 % 0.0 mm 0 W/m2
20:20 -1.9 °C -3.5 °C 1027.3 hPa ENE 4.8 km/h 8.0 km/h 89 % 0.0 mm 0 W/m2
20:25 -2.0 °C -3.6 °C 1027.3 hPa ENE 4.8 km/h 8.0 km/h 89 % 0.0 mm 0 W/m2
20:30 -1.9 °C -3.5 °C 1027.0 hPa ENE 4.8 km/h 8.0 km/h 89 % 0.0 mm 0 W/m2
20:35 -1.9 °C -3.5 °C 1027.0 hPa East 3.2 km/h 11.3 km/h 89 % 0.0 mm 0 W/m2
20:40 -1.9 °C -3.5 °C 1027.0 hPa East 4.8 km/h 11.3 km/h 89 % 0.0 mm 0 W/m2
20:45 -1.9 °C -3.5 °C 1027.0 hPa East 4.8 km/h 11.3 km/h 89 % 0.0 mm 0 W/m2
20:50 -2.1 °C -3.6 °C 1027.3 hPa Calm   9.7 km/h 89 % 0.0 mm 0 W/m2
20:55 -2.1 °C -3.6 °C 1027.3 hPa Calm   8.0 km/h 89 % 0.0 mm 0 W/m2
21:00 -2.2 °C -3.7 °C 1027.0 hPa East 8.0 km/h 8.0 km/h 89 % 0.0 mm 0 W/m2
21:05 -2.2 °C -3.8 °C 1027.0 hPa East 1.6 km/h 8.0 km/h 89 % 0.0 mm 0 W/m2
21:10 -2.3 °C -3.8 °C 1027.3 hPa East 3.2 km/h 8.0 km/h 89 % 0.0 mm 0 W/m2
21:15 -2.3 °C -3.8 °C 1027.3 hPa East 4.8 km/h 9.7 km/h 89 % 0.0 mm 0 W/m2
21:20 -2.3 °C -3.8 °C 1027.3 hPa East 8.0 km/h 9.7 km/h 89 % 0.0 mm 0 W/m2
21:25 -2.3 °C -3.8 °C 1027.3 hPa ENE 4.8 km/h 9.7 km/h 89 % 0.0 mm 0 W/m2
21:30 -2.4 °C -4.0 °C 1027.3 hPa East 3.2 km/h 9.7 km/h 89 % 0.0 mm 0 W/m2
21:35 -2.4 °C -3.9 °C 1027.3 hPa East 8.0 km/h 8.0 km/h 90 % 0.0 mm 0 W/m2
21:40 -2.4 °C -3.8 °C 1027.3 hPa ESE 1.6 km/h 8.0 km/h 90 % 0.0 mm 0 W/m2
21:45 -2.4 °C -4.0 °C 1027.0 hPa East 4.8 km/h 8.0 km/h 89 % 0.0 mm 0 W/m2
21:50 -2.4 °C -3.9 °C 1027.3 hPa East 4.8 km/h 8.0 km/h 90 % 0.0 mm 0 W/m2
21:55 -2.7 °C -4.2 °C 1027.0 hPa East 1.6 km/h 8.0 km/h 89 % 0.0 mm 0 W/m2
22:00 -2.9 °C -4.4 °C 1027.0 hPa East 3.2 km/h 6.4 km/h 89 % 0.0 mm 0 W/m2
22:05 -3.0 °C -4.4 °C 1027.0 hPa East 1.6 km/h 4.8 km/h 90 % 0.0 mm 0 W/m2
22:10 -3.1 °C -4.5 °C 1027.0 hPa ENE 1.6 km/h 8.0 km/h 90 % 0.0 mm 0 W/m2
22:15 -3.2 °C -4.6 °C 1027.0 hPa ENE 1.6 km/h 8.0 km/h 90 % 0.0 mm 0 W/m2
22:20 -3.2 °C -4.5 °C 1027.0 hPa Calm   6.4 km/h 91 % 0.0 mm 0 W/m2
22:25 -3.1 °C -4.4 °C 1027.0 hPa East 3.2 km/h 6.4 km/h 91 % 0.0 mm 0 W/m2
22:30 -2.9 °C -4.2 °C 1027.0 hPa Calm   6.4 km/h 91 % 0.0 mm 0 W/m2
22:35 -3.0 °C -4.4 °C 1027.0 hPa ENE 3.2 km/h 6.4 km/h 90 % 0.0 mm 0 W/m2
22:40 -3.3 °C -4.5 °C 1027.0 hPa ENE 3.2 km/h 4.8 km/h 91 % 0.0 mm 0 W/m2
22:45 -3.3 °C -4.4 °C 1027.0 hPa ENE 3.2 km/h 6.4 km/h 92 % 0.0 mm 0 W/m2
22:50 -3.3 °C -4.4 °C 1027.0 hPa ENE 1.6 km/h 6.4 km/h 92 % 0.0 mm 0 W/m2
22:55 -3.2 °C -4.3 °C 1027.0 hPa Calm   4.8 km/h 92 % 0.0 mm 0 W/m2
23:00 -3.0 °C -4.1 °C 1027.0 hPa ENE 1.6 km/h 4.8 km/h 92 % 0.0 mm 0 W/m2
23:05 -3.1 °C -4.2 °C 1027.0 hPa Calm   6.4 km/h 92 % 0.0 mm 0 W/m2
23:10 -3.1 °C -4.2 °C 1026.6 hPa Calm   6.4 km/h 92 % 0.0 mm 0 W/m2
23:15 -3.1 °C -4.2 °C 1026.6 hPa ENE 3.2 km/h 6.4 km/h 92 % 0.0 mm 0 W/m2
23:20 -3.2 °C -4.3 °C 1027.0 hPa ENE 1.6 km/h 6.4 km/h 92 % 0.0 mm 0 W/m2
23:25 -3.1 °C -4.2 °C 1027.0 hPa Calm   6.4 km/h 92 % 0.0 mm 0 W/m2
23:30 -3.2 °C -4.3 °C 1027.0 hPa ENE 1.6 km/h 4.8 km/h 92 % 0.0 mm 0 W/m2
23:35 -3.4 °C -4.6 °C 1026.6 hPa Calm   3.2 km/h 92 % 0.0 mm 0 W/m2
23:40 -3.7 °C -4.8 °C 1026.6 hPa ENE 1.6 km/h 3.2 km/h 92 % 0.0 mm 0 W/m2
23:45 -3.8 °C -4.9 °C 1026.6 hPa Calm   1.6 km/h 92 % 0.0 mm 0 W/m2
23:50 -4.0 °C -5.1 °C 1027.0 hPa ENE 1.6 km/h 3.2 km/h 92 % 0.0 mm 0 W/m2
23:55 -4.2 °C -5.3 °C 1026.6 hPa ENE 3.2 km/h 4.8 km/h 92 % 0.0 mm 0 W/m2
Avec l'autorisation de Weather Underground - 1.75 mb